createdAt,value
2022-08-14T00:00:50.928Z,70.10
2022-08-14T00:01:55.121Z,70.20
2022-08-14T00:02:50.849Z,70.78
2022-08-14T00:03:50.811Z,71.16
2022-08-14T00:04:50.764Z,71.45
2022-08-14T00:05:58.269Z,70.68
2022-08-14T00:06:50.684Z,70.78
2022-08-14T00:07:50.646Z,71.06
2022-08-14T00:08:50.606Z,70.78
2022-08-14T00:10:02.182Z,71.45
2022-08-14T00:10:52.916Z,71.64
2022-08-14T00:11:50.480Z,71.26
2022-08-14T00:12:56.530Z,71.45
2022-08-14T00:13:52.556Z,71.64
2022-08-14T00:14:54.720Z,71.94
2022-08-14T00:15:50.322Z,72.67
2022-08-14T00:16:50.275Z,72.42
2022-08-14T00:17:53.297Z,72.86
2022-08-14T00:19:05.974Z,72.48
2022-08-14T00:19:51.803Z,72.77
2022-08-14T00:20:50.111Z,72.96
2022-08-14T00:21:50.733Z,72.77
2022-08-14T00:22:57.913Z,73.25
2022-08-14T00:23:53.768Z,73.15
2022-08-14T00:24:49.948Z,73.35
2022-08-14T00:25:59.060Z,73.21
2022-08-14T00:26:49.870Z,73.89
2022-08-14T00:27:54.127Z,73.54
2022-08-14T00:28:49.779Z,74.37
2022-08-14T00:29:49.743Z,74.08
2022-08-14T00:30:49.706Z,74.57
2022-08-14T00:31:56.031Z,74.76
2022-08-14T00:33:00.768Z,74.66
2022-08-14T00:33:51.800Z,74.85
2022-08-14T00:34:49.536Z,75.05
2022-08-14T00:36:35.939Z,75.43
2022-08-14T00:36:49.950Z,75.92
2022-08-14T00:37:49.414Z,75.72
2022-08-14T00:38:49.367Z,75.97
2022-08-14T00:39:49.358Z,75.97
2022-08-14T00:40:49.290Z,76.45
2022-08-14T00:41:49.255Z,76.84
2022-08-14T00:42:55.802Z,76.65
2022-08-14T00:43:49.169Z,76.65
2022-08-14T00:44:49.129Z,77.42
2022-08-14T00:45:51.679Z,77.23
2022-08-14T00:46:49.038Z,77.13
2022-08-14T00:47:49.005Z,77.13
2022-08-14T00:48:49.232Z,77.13
2022-08-14T00:49:48.914Z,77.00
2022-08-14T00:50:48.871Z,77.76
2022-08-14T00:51:48.833Z,77.67
2022-08-14T00:52:50.841Z,77.48
2022-08-14T00:53:48.753Z,77.76
2022-08-14T00:54:48.708Z,77.96
2022-08-14T00:55:48.668Z,78.73
2022-08-14T00:56:48.624Z,78.44
2022-08-14T00:57:48.585Z,78.34
2022-08-14T00:58:48.758Z,78.92
2022-08-14T00:59:48.506Z,78.73
2022-08-14T01:00:50.982Z,79.02
2022-08-14T01:01:48.524Z,79.17
2022-08-14T01:02:48.378Z,78.98
2022-08-14T01:04:54.440Z,79.66
2022-08-14T01:05:52.085Z,79.56
2022-08-14T01:06:48.214Z,78.88
2022-08-14T01:07:54.129Z,79.56
2022-08-14T01:08:52.422Z,79.66
2022-08-14T01:09:48.086Z,79.56
2022-08-14T01:10:48.050Z,79.27
2022-08-14T01:11:57.230Z,79.66
2022-08-14T01:12:48.017Z,80.23
2022-08-14T01:16:14.917Z,80.23
2022-08-14T01:17:14.498Z,80.68
2022-08-14T01:18:14.483Z,80.68
2022-08-14T01:19:14.438Z,81.35
2022-08-14T01:20:58.090Z,81.25
2022-08-14T01:22:56.133Z,81.54
2022-08-14T01:23:56.076Z,82.31
2022-08-14T01:30:21.023Z,83.04
2022-08-14T01:31:19.271Z,83.28
2022-08-14T01:32:22.944Z,82.85
2022-08-14T01:33:19.184Z,83.81
2022-08-14T01:35:18.333Z,83.52
2022-08-14T01:36:03.587Z,83.91
2022-08-14T01:36:21.136Z,83.81
2022-08-14T01:37:19.027Z,83.72
2022-08-14T01:38:18.954Z,83.62
2022-08-14T01:39:18.984Z,83.72
2022-08-14T01:40:19.907Z,84.39
2022-08-14T01:41:18.851Z,84.48
2022-08-14T01:42:30.962Z,84.48
2022-08-14T01:43:22.148Z,84.67
2022-08-14T01:44:33.027Z,84.19
2022-08-14T01:45:25.584Z,85.25
2022-08-14T01:46:24.523Z,84.67
2022-08-14T01:47:22.219Z,84.58
2022-08-14T01:48:20.785Z,84.87
2022-08-14T01:49:18.497Z,85.35
2022-08-14T01:50:18.458Z,84.97
2022-08-14T01:51:20.266Z,85.64
2022-08-14T01:52:33.660Z,85.54
2022-08-14T01:53:18.328Z,85.40
2022-08-14T01:54:18.297Z,85.64
2022-08-14T01:55:18.227Z,85.74
2022-08-14T01:56:18.744Z,85.50
2022-08-14T01:57:18.152Z,85.21
2022-08-14T01:58:28.590Z,85.74
2022-08-14T01:59:18.329Z,85.74
2022-08-14T02:00:18.196Z,85.60
2022-08-14T02:01:17.998Z,85.50
2022-08-14T02:02:19.942Z,86.36
2022-08-14T02:03:17.878Z,85.69
2022-08-14T02:04:20.593Z,85.50
2022-08-14T02:05:17.796Z,85.69
2022-08-14T02:06:33.293Z,86.08
2022-08-14T02:07:17.725Z,85.98
2022-08-14T02:08:22.417Z,85.69
2022-08-14T02:09:22.285Z,85.69
2022-08-14T02:10:17.996Z,85.60
2022-08-14T02:11:18.665Z,86.27
2022-08-14T02:12:19.586Z,85.98
2022-08-14T02:13:17.549Z,85.78
2022-08-14T02:14:31.518Z,86.27
2022-08-14T02:15:17.365Z,86.08
2022-08-14T02:16:22.434Z,85.88
2022-08-14T02:17:17.276Z,85.88
2022-08-14T02:18:18.210Z,86.27
2022-08-14T02:19:17.190Z,85.98
2022-08-14T02:20:17.147Z,86.18
2022-08-14T02:21:17.105Z,86.27
2022-08-14T02:22:17.063Z,85.78
2022-08-14T02:23:28.888Z,85.98
2022-08-14T02:24:39.671Z,86.27
2022-08-14T02:25:16.958Z,86.18
2022-08-14T02:26:24.861Z,86.46
2022-08-14T02:28:22.669Z,86.65
2022-08-14T02:28:25.439Z,86.46
2022-08-14T02:29:16.773Z,86.85
2022-08-14T02:30:16.737Z,86.94
2022-08-14T02:31:16.687Z,87.13
2022-08-14T02:32:30.016Z,87.13
2022-08-14T02:33:16.583Z,87.04
2022-08-14T02:34:21.880Z,86.94
2022-08-14T02:35:16.828Z,86.85
2022-08-14T02:37:04.250Z,87.23
2022-08-14T02:37:16.412Z,87.42
2022-08-14T02:38:30.546Z,86.94
2022-08-14T02:39:16.425Z,87.57
2022-08-14T02:40:16.450Z,87.90
2022-08-14T02:41:16.760Z,87.81
2022-08-14T02:42:16.215Z,87.71
2022-08-14T02:43:16.169Z,87.62
2022-08-14T02:44:16.128Z,87.76
2022-08-14T02:45:17.708Z,87.81
2022-08-14T02:46:20.421Z,87.90
2022-08-14T02:47:19.115Z,88.10
2022-08-14T02:49:02.919Z,87.90
2022-08-14T02:49:15.891Z,87.90
2022-08-14T02:50:15.856Z,88.29
2022-08-14T02:51:15.824Z,88.24
2022-08-14T02:52:27.032Z,88.15
2022-08-14T02:53:15.735Z,88.39
2022-08-14T02:54:19.867Z,88.39
2022-08-14T02:55:20.456Z,88.63
2022-08-14T02:56:30.548Z,88.63
2022-08-14T02:57:40.328Z,88.63
2022-08-14T02:58:29.088Z,88.87
2022-08-14T02:59:15.475Z,88.48
2022-08-14T03:00:18.889Z,88.63
2022-08-14T03:01:15.426Z,88.73
2022-08-14T03:02:33.594Z,88.82
2022-08-14T03:03:15.286Z,88.73
2022-08-14T03:04:15.249Z,88.92
2022-08-14T03:05:15.200Z,89.21
2022-08-14T03:06:20.621Z,88.53
2022-08-14T03:07:15.113Z,88.73
2022-08-14T03:08:18.816Z,89.01
2022-08-14T03:09:15.046Z,89.11
2022-08-14T03:10:27.827Z,89.50
2022-08-14T03:11:14.939Z,89.98
2022-08-14T03:12:26.951Z,89.78
2022-08-14T03:13:19.589Z,89.59
2022-08-14T03:14:15.340Z,89.59
2022-08-14T03:15:16.410Z,89.88
2022-08-14T03:16:26.589Z,89.88
2022-08-14T03:17:14.700Z,89.69
2022-08-14T03:18:14.663Z,89.59
2022-08-14T03:19:14.594Z,90.45
2022-08-14T03:20:14.569Z,90.45
2022-08-14T03:21:14.503Z,90.26
2022-08-14T03:22:17.884Z,90.45
2022-08-14T03:23:14.435Z,90.94
2022-08-14T03:24:21.454Z,90.75
2022-08-14T03:25:14.349Z,90.65
2022-08-14T03:26:18.194Z,90.65
2022-08-14T03:27:14.247Z,90.75
2022-08-14T03:28:14.383Z,90.94
2022-08-14T03:29:14.158Z,91.03
2022-08-14T03:30:14.616Z,91.61
2022-08-14T03:31:14.078Z,91.42
2022-08-14T03:32:14.046Z,91.22
2022-08-14T03:33:13.986Z,91.32
2022-08-14T03:34:24.934Z,91.32
2022-08-14T03:35:13.896Z,91.42
2022-08-14T03:37:39.395Z,91.13
2022-08-14T03:39:09.345Z,91.80
2022-08-14T03:39:10.557Z,91.52
2022-08-14T03:39:22.981Z,91.42
2022-08-14T03:40:18.381Z,91.61
2022-08-14T03:41:13.639Z,91.61
2022-08-14T03:42:19.332Z,91.32
2022-08-14T03:43:13.548Z,91.42
2022-08-14T03:45:19.168Z,91.42
2022-08-14T03:45:27.853Z,91.42
2022-08-14T03:46:52.715Z,91.32
2022-08-14T03:47:15.306Z,91.13
2022-08-14T03:48:29.469Z,91.32
2022-08-14T03:49:13.544Z,91.52
2022-08-14T03:50:13.248Z,91.42
2022-08-14T03:51:13.200Z,91.32
2022-08-14T03:52:27.929Z,91.42
2022-08-14T03:53:13.115Z,91.32
2022-08-14T03:54:15.715Z,91.52
2022-08-14T03:55:13.029Z,91.32
2022-08-14T03:56:12.987Z,91.61
2022-08-14T03:57:12.942Z,90.94
2022-08-14T03:58:13.019Z,90.94
2022-08-14T03:59:18.103Z,91.32
2022-08-14T04:00:27.632Z,91.42
2022-08-14T04:01:12.800Z,91.52
2022-08-14T04:02:32.691Z,91.22
2022-08-14T04:03:17.986Z,91.61
2022-08-14T04:04:12.659Z,91.61
2022-08-14T04:05:16.362Z,91.61
2022-08-14T04:06:12.552Z,91.52
2022-08-14T04:07:12.509Z,91.42
2022-08-14T04:08:29.142Z,91.22
2022-08-14T04:09:12.451Z,91.22
2022-08-14T04:10:12.381Z,91.22
2022-08-14T04:11:12.334Z,91.22
2022-08-14T04:12:13.510Z,91.32
2022-08-14T04:13:12.268Z,91.52
2022-08-14T04:14:12.206Z,91.32
2022-08-14T04:15:12.161Z,91.03
2022-08-14T04:16:12.740Z,91.32
2022-08-14T04:17:12.085Z,91.71
2022-08-14T04:18:12.031Z,91.61
2022-08-14T04:19:11.985Z,91.61
2022-08-14T04:20:11.962Z,91.90
2022-08-14T04:21:11.904Z,92.47
2022-08-14T04:22:11.857Z,92.38
2022-08-14T04:23:23.250Z,92.19
2022-08-14T04:24:11.772Z,92.67
2022-08-14T04:25:11.742Z,92.38
2022-08-14T04:26:14.972Z,92.86
2022-08-14T04:27:11.645Z,92.67
2022-08-14T04:29:01.658Z,93.15
2022-08-14T04:29:15.188Z,93.24
2022-08-14T04:30:11.521Z,93.24
2022-08-14T04:31:11.465Z,93.82
2022-08-14T04:32:59.108Z,93.96
2022-08-14T04:33:20.351Z,93.73
2022-08-14T04:34:17.297Z,93.77
2022-08-14T04:35:11.294Z,94.01
2022-08-14T04:36:15.921Z,93.82
2022-08-14T04:37:11.205Z,94.21
2022-08-14T04:38:36.665Z,94.26
2022-08-14T04:39:12.033Z,94.16
2022-08-14T04:40:11.102Z,94.11
2022-08-14T04:41:11.046Z,94.21
2022-08-14T04:42:13.946Z,94.35
2022-08-14T04:43:14.348Z,94.16
2022-08-14T04:44:13.565Z,94.35
2022-08-14T04:45:10.872Z,94.26
2022-08-14T04:46:54.803Z,94.73
2022-08-14T04:47:10.768Z,94.73
2022-08-14T04:48:10.725Z,94.73
2022-08-14T04:49:11.007Z,94.83
2022-08-14T04:50:10.658Z,94.83
2022-08-14T04:51:10.613Z,95.03
2022-08-14T04:52:15.212Z,94.54
2022-08-14T04:53:10.524Z,94.54
2022-08-14T04:54:10.485Z,95.12
2022-08-14T04:55:10.424Z,95.31
2022-08-14T04:56:30.846Z,95.31
2022-08-14T04:57:10.336Z,95.31
2022-08-14T04:58:21.685Z,95.50
2022-08-14T04:59:11.163Z,95.89
2022-08-14T05:00:16.347Z,95.89
2022-08-14T05:01:12.736Z,95.79
2022-08-14T05:02:10.233Z,95.31
2022-08-14T05:03:10.071Z,95.89
2022-08-14T05:04:14.592Z,96.08
2022-08-14T05:05:09.984Z,96.56
2022-08-14T05:06:37.082Z,96.66
2022-08-14T05:07:09.915Z,96.56
2022-08-14T05:08:09.873Z,96.47
2022-08-14T05:09:14.178Z,96.66
2022-08-14T05:10:12.832Z,96.37
2022-08-14T05:11:11.870Z,96.75
2022-08-14T05:13:12.633Z,96.75
2022-08-14T05:13:13.547Z,96.85
2022-08-14T05:14:33.170Z,96.85
2022-08-14T05:15:09.565Z,96.85
2022-08-14T05:16:09.524Z,96.47
2022-08-14T05:17:09.462Z,96.94
2022-08-14T05:18:17.703Z,97.04
2022-08-14T05:19:18.849Z,96.66
2022-08-14T05:21:04.214Z,97.04
2022-08-14T05:22:00.079Z,96.99
2022-08-14T05:22:16.453Z,96.99
2022-08-14T05:23:11.168Z,97.09
2022-08-14T05:24:09.158Z,96.80
2022-08-14T05:25:09.112Z,96.80
2022-08-14T05:26:09.088Z,96.42
2022-08-14T05:27:09.027Z,96.42
2022-08-14T05:28:12.507Z,96.51
2022-08-14T05:29:11.978Z,96.61
2022-08-14T05:30:08.919Z,96.61
2022-08-14T05:31:08.869Z,96.90
2022-08-14T05:32:08.810Z,97.09
2022-08-14T05:33:08.786Z,96.42
2022-08-14T05:34:08.723Z,96.42
2022-08-14T05:35:08.678Z,96.61
2022-08-14T05:36:16.848Z,96.51
2022-08-14T05:37:08.591Z,96.37
2022-08-14T05:38:10.719Z,96.17
2022-08-14T05:39:08.518Z,95.98
2022-08-14T05:40:08.485Z,95.70
2022-08-14T05:41:08.432Z,95.89
2022-08-14T05:42:21.691Z,95.79
2022-08-14T05:43:08.346Z,95.40
2022-08-14T05:44:08.289Z,95.50
2022-08-14T05:45:11.006Z,95.31
2022-08-14T05:46:08.200Z,95.60
2022-08-14T05:47:08.177Z,95.40
2022-08-14T05:48:09.515Z,95.31
2022-08-14T05:49:08.099Z,94.59
2022-08-14T05:50:08.031Z,94.64
2022-08-14T05:51:07.986Z,94.68
2022-08-14T05:52:09.924Z,94.87
2022-08-14T05:53:07.900Z,94.49
2022-08-14T05:54:11.479Z,94.20
2022-08-14T05:55:07.820Z,94.49
2022-08-14T05:56:07.767Z,94.20
2022-08-14T05:57:07.726Z,93.72
2022-08-14T05:58:07.686Z,94.40
2022-08-14T05:59:07.660Z,93.77
2022-08-14T06:00:07.610Z,93.09
2022-08-14T06:01:07.612Z,93.09
2022-08-14T06:02:07.513Z,92.80
2022-08-14T06:03:07.467Z,92.80
2022-08-14T06:04:07.427Z,92.80
2022-08-14T06:05:07.380Z,92.32
2022-08-14T06:06:07.340Z,91.94
2022-08-14T06:07:07.295Z,91.89
2022-08-14T06:08:08.439Z,91.69
2022-08-14T06:09:07.208Z,90.92
2022-08-14T06:10:07.165Z,90.92
2022-08-14T06:11:07.123Z,90.34
2022-08-14T06:12:07.077Z,90.34
2022-08-14T06:13:07.318Z,90.44
2022-08-14T06:14:21.109Z,89.86
2022-08-14T06:15:08.132Z,89.96
2022-08-14T06:16:06.906Z,89.48
2022-08-14T06:17:06.876Z,89.43
2022-08-14T06:18:06.821Z,89.23
2022-08-14T06:19:06.778Z,88.95
2022-08-14T06:20:06.741Z,88.95
2022-08-14T06:21:13.468Z,89.72
2022-08-14T06:22:06.649Z,89.04
2022-08-14T06:23:06.619Z,88.56
2022-08-14T06:24:10.394Z,88.85
2022-08-14T06:25:06.524Z,88.99
2022-08-14T06:26:06.481Z,88.89
2022-08-14T06:27:10.124Z,88.51
2022-08-14T06:28:06.393Z,88.22
2022-08-14T06:29:06.352Z,88.02
2022-08-14T06:30:06.308Z,87.93
2022-08-14T06:31:06.270Z,87.83
2022-08-14T06:32:37.691Z,87.93
2022-08-14T06:33:06.926Z,87.26
2022-08-14T06:35:10.400Z,87.20
2022-08-14T06:35:13.239Z,86.91
2022-08-14T06:36:06.050Z,86.62
2022-08-14T06:37:06.011Z,86.52
2022-08-14T06:38:05.966Z,85.66
2022-08-14T06:39:09.866Z,85.85
2022-08-14T06:40:05.993Z,85.85
2022-08-14T06:41:05.841Z,85.37
2022-08-14T06:42:05.983Z,85.31
2022-08-14T06:43:05.770Z,85.60
2022-08-14T06:44:05.711Z,85.80
2022-08-14T06:45:05.671Z,85.41
2022-08-14T06:46:05.628Z,85.80
2022-08-14T06:47:05.587Z,85.60
2022-08-14T06:48:06.271Z,84.83
2022-08-14T06:49:05.502Z,84.74
2022-08-14T06:50:05.456Z,84.54
2022-08-14T06:51:05.416Z,84.35
2022-08-14T06:52:05.537Z,83.72
2022-08-14T06:53:05.338Z,83.91
2022-08-14T06:54:05.292Z,83.72
2022-08-14T06:55:05.244Z,83.33
2022-08-14T06:56:05.202Z,83.23
2022-08-14T06:57:05.165Z,83.52
2022-08-14T06:58:05.827Z,83.62
2022-08-14T06:59:05.234Z,83.33
2022-08-14T07:00:05.037Z,83.33
2022-08-14T07:01:05.055Z,82.84
2022-08-14T07:02:05.278Z,82.75
2022-08-14T07:03:04.909Z,82.79
2022-08-14T07:04:04.864Z,83.08
2022-08-14T07:05:05.375Z,82.50
2022-08-14T07:06:11.613Z,82.69
2022-08-14T07:07:04.744Z,82.40
2022-08-14T07:08:04.696Z,82.11
2022-08-14T07:09:04.656Z,82.11
2022-08-14T07:10:04.613Z,81.67
2022-08-14T07:11:04.571Z,81.09
2022-08-14T07:12:04.527Z,81.09
2022-08-14T07:13:04.678Z,81.77
2022-08-14T07:14:04.449Z,81.19
2022-08-14T07:15:04.406Z,80.99
2022-08-14T07:16:05.571Z,80.41
2022-08-14T07:17:04.320Z,80.99
2022-08-14T07:18:04.871Z,80.94
2022-08-14T07:19:04.236Z,80.46
2022-08-14T07:20:04.192Z,79.97
2022-08-14T07:21:04.155Z,79.58
2022-08-14T07:22:05.497Z,79.39
2022-08-14T07:23:08.547Z,79.29
2022-08-14T07:24:04.025Z,79.39
2022-08-14T07:25:04.023Z,79.20
2022-08-14T07:26:03.946Z,79.20
2022-08-14T07:27:03.901Z,79.39
2022-08-14T07:28:03.859Z,79.04
2022-08-14T07:29:03.818Z,79.04
2022-08-14T07:30:03.778Z,78.75
2022-08-14T07:31:04.814Z,78.75
2022-08-14T07:32:03.694Z,79.14
2022-08-14T07:33:03.697Z,79.33
2022-08-14T07:34:04.178Z,78.46
2022-08-14T07:35:03.566Z,78.89
2022-08-14T07:36:03.523Z,78.11
2022-08-14T07:37:03.484Z,77.63
2022-08-14T07:38:03.441Z,77.14
2022-08-14T07:39:12.277Z,78.02
2022-08-14T07:40:03.533Z,77.24
2022-08-14T07:47:31.407Z,76.79
2022-08-14T07:56:50.635Z,74.51
2022-08-14T07:57:47.661Z,75.09
2022-08-14T07:58:51.618Z,74.80
2022-08-14T07:59:49.560Z,73.86
2022-08-14T08:00:51.373Z,73.77
2022-08-14T08:01:48.468Z,73.86
2022-08-14T08:02:51.768Z,74.26
2022-08-14T08:03:49.558Z,74.06
2022-08-14T08:04:47.367Z,73.58
2022-08-14T08:05:47.324Z,73.52
2022-08-14T08:06:47.286Z,73.52
2022-08-14T08:07:47.242Z,72.93
2022-08-14T08:08:47.360Z,72.93
2022-08-14T08:09:47.162Z,72.09
2022-08-14T08:11:02.256Z,72.09
2022-08-14T08:11:47.078Z,71.80
2022-08-14T08:12:47.039Z,72.49
2022-08-14T08:13:49.001Z,72.19
2022-08-14T08:14:56.686Z,71.94
2022-08-14T08:15:46.914Z,71.94
2022-08-14T08:16:47.095Z,71.94
2022-08-14T08:17:53.367Z,71.94
2022-08-14T08:18:46.793Z,71.06
2022-08-14T08:19:46.752Z,71.00
2022-08-14T08:20:51.987Z,70.42
2022-08-14T08:21:46.673Z,69.74
2022-08-14T08:22:48.255Z,70.03
2022-08-14T08:23:51.301Z,69.35
2022-08-14T08:24:46.554Z,69.29
2022-08-14T08:25:46.514Z,68.99
2022-08-14T08:26:46.468Z,68.99
2022-08-14T08:27:46.429Z,68.70
2022-08-14T08:28:46.393Z,69.29
2022-08-14T08:29:51.002Z,69.32
2022-08-14T08:30:49.794Z,68.84
2022-08-14T08:31:48.967Z,68.84
2022-08-14T08:32:46.437Z,68.54
2022-08-14T08:33:49.459Z,68.54
2022-08-14T08:34:46.235Z,67.80
2022-08-14T08:35:50.441Z,67.11
2022-08-14T08:36:46.600Z,66.73
2022-08-14T08:37:46.348Z,66.24
2022-08-14T08:39:15.386Z,66.34
2022-08-14T08:40:01.400Z,66.24
2022-08-14T08:40:45.938Z,66.08
2022-08-14T08:41:45.883Z,66.47
2022-08-14T08:42:45.903Z,66.17
2022-08-14T08:43:47.015Z,65.88
2022-08-14T08:44:45.741Z,65.40
2022-08-14T08:45:45.698Z,65.33
2022-08-14T08:46:45.661Z,65.79
2022-08-14T08:47:45.618Z,65.82
2022-08-14T08:48:52.162Z,65.33
2022-08-14T08:49:53.031Z,64.94
2022-08-14T08:50:45.508Z,64.97
2022-08-14T08:51:45.467Z,64.97
2022-08-14T08:52:45.427Z,65.46
2022-08-14T08:53:45.380Z,65.46
2022-08-14T08:54:45.341Z,64.72
2022-08-14T08:55:45.300Z,64.32
2022-08-14T08:56:45.281Z,63.84
2022-08-14T08:57:45.221Z,62.57
2022-08-14T08:58:45.183Z,62.18
2022-08-14T08:59:45.150Z,62.96
2022-08-14T09:00:45.150Z,62.18
2022-08-14T09:01:45.389Z,62.66
2022-08-14T09:02:45.143Z,62.12
2022-08-14T09:03:44.983Z,62.70
2022-08-14T09:04:53.229Z,61.63
2022-08-14T09:05:44.905Z,61.14
2022-08-14T09:07:00.974Z,61.63
2022-08-14T09:07:44.824Z,61.43
2022-08-14T09:08:44.787Z,61.24
2022-08-14T09:09:54.551Z,61.33
2022-08-14T09:10:44.710Z,60.68
2022-08-14T09:11:44.666Z,60.39
2022-08-14T09:12:46.819Z,60.78
2022-08-14T09:13:44.587Z,61.66
2022-08-14T09:14:44.550Z,60.88
2022-08-14T09:15:44.511Z,60.88
2022-08-14T09:16:48.290Z,60.42
2022-08-14T09:17:44.430Z,60.52
2022-08-14T09:18:44.404Z,60.03
2022-08-14T09:19:44.356Z,60.13
2022-08-14T09:20:44.315Z,59.38
2022-08-14T09:21:44.274Z,59.18
2022-08-14T09:22:47.906Z,58.59
2022-08-14T09:24:28.616Z,58.20
2022-08-14T09:24:45.768Z,57.81
2022-08-14T09:25:58.764Z,57.81
2022-08-14T09:26:44.081Z,57.42
2022-08-14T09:27:44.041Z,57.91
2022-08-14T09:28:44.003Z,57.13
2022-08-14T09:29:43.964Z,57.23
2022-08-14T09:30:43.927Z,57.54
2022-08-14T09:31:53.284Z,57.93
2022-08-14T09:32:58.067Z,57.84
2022-08-14T09:33:56.416Z,56.96
2022-08-14T09:34:58.172Z,57.64
2022-08-14T09:35:43.748Z,57.35
2022-08-14T09:36:43.960Z,56.86
2022-08-14T09:37:43.979Z,56.70
2022-08-14T09:38:43.613Z,56.79
2022-08-14T09:39:43.697Z,56.60
2022-08-14T09:40:43.537Z,56.10
2022-08-14T09:42:21.685Z,56.50
2022-08-14T09:42:49.776Z,55.91
2022-08-14T09:43:43.419Z,54.93
2022-08-14T09:44:45.798Z,55.16
2022-08-14T09:45:53.001Z,54.86
2022-08-14T09:46:43.325Z,54.28
2022-08-14T09:47:43.279Z,53.78
2022-08-14T09:48:43.310Z,54.38
2022-08-14T09:49:43.205Z,54.40
2022-08-14T09:50:43.150Z,53.88
2022-08-14T09:51:45.152Z,53.69
2022-08-14T09:52:46.414Z,54.01
2022-08-14T09:53:43.055Z,53.62
2022-08-14T09:54:43.014Z,54.01
2022-08-14T09:55:42.954Z,54.01
2022-08-14T09:56:42.922Z,53.72
2022-08-14T09:57:43.002Z,52.64
2022-08-14T09:58:42.843Z,52.76
2022-08-14T09:59:42.801Z,52.37
2022-08-14T10:00:42.771Z,52.56
2022-08-14T10:01:43.084Z,52.76
2022-08-14T10:02:46.129Z,52.86
2022-08-14T10:03:42.648Z,52.67
2022-08-14T10:04:45.972Z,52.67
2022-08-14T10:05:42.578Z,52.76
2022-08-14T10:06:42.551Z,52.67
2022-08-14T10:07:47.584Z,51.98
2022-08-14T10:08:42.477Z,52.08
2022-08-14T10:09:42.433Z,52.17
2022-08-14T10:10:42.400Z,51.61
2022-08-14T10:11:43.599Z,51.78
2022-08-14T10:12:42.303Z,51.78
2022-08-14T10:13:52.843Z,51.61
2022-08-14T10:14:42.248Z,51.59
2022-08-14T10:15:42.190Z,51.98
2022-08-14T10:16:42.178Z,52.08
2022-08-14T10:17:42.111Z,51.88
2022-08-14T10:18:42.074Z,51.78
2022-08-14T10:19:42.035Z,51.98
2022-08-14T10:20:43.502Z,51.68
2022-08-14T10:21:58.530Z,51.66
2022-08-14T10:23:21.673Z,51.95
2022-08-14T10:23:41.885Z,51.95
2022-08-14T10:24:42.155Z,51.37
2022-08-14T10:25:42.533Z,50.98
2022-08-14T10:26:41.768Z,51.27
2022-08-14T10:27:41.732Z,51.95
2022-08-14T10:29:18.347Z,52.05
2022-08-14T10:29:41.654Z,51.95
2022-08-14T10:30:41.637Z,51.17
2022-08-14T10:32:49.794Z,50.32
2022-08-14T10:33:41.504Z,50.42
2022-08-14T10:34:41.478Z,50.42
2022-08-14T10:35:41.426Z,50.61
2022-08-14T10:36:44.987Z,50.90
2022-08-14T10:37:41.365Z,51.39
2022-08-14T10:38:41.316Z,51.20
2022-08-14T10:39:51.301Z,51.00
2022-08-14T10:40:51.831Z,51.10
2022-08-14T10:41:48.655Z,50.90
2022-08-14T10:42:41.222Z,51.20
2022-08-14T10:43:41.144Z,51.39
2022-08-14T10:44:41.085Z,51.00
2022-08-14T10:45:42.217Z,51.20
2022-08-14T10:47:40.917Z,51.03
2022-08-14T10:48:09.466Z,50.73
2022-08-14T10:48:43.391Z,50.81
2022-08-14T10:49:40.892Z,50.73
2022-08-14T10:50:40.872Z,50.02
2022-08-14T10:51:41.856Z,50.54
2022-08-14T10:52:42.132Z,50.71
2022-08-14T10:53:40.758Z,51.03
2022-08-14T10:54:42.021Z,50.04
2022-08-14T10:55:45.387Z,49.85
2022-08-14T10:56:40.645Z,49.26
2022-08-14T10:57:40.587Z,49.95
2022-08-14T10:58:40.548Z,50.15
2022-08-14T10:59:43.164Z,50.44
2022-08-14T11:00:46.883Z,49.75
2022-08-14T11:01:41.839Z,49.75
2022-08-14T11:02:53.964Z,49.85
2022-08-14T11:03:55.834Z,49.65
2022-08-14T11:04:40.394Z,49.07
2022-08-14T11:05:40.283Z,49.95
2022-08-14T11:06:40.245Z,49.36
2022-08-14T11:07:40.210Z,48.97
2022-08-14T11:08:40.167Z,49.16
2022-08-14T11:09:41.926Z,49.48
2022-08-14T11:10:42.788Z,49.09
2022-08-14T11:11:40.385Z,49.38
2022-08-14T11:12:46.504Z,49.19
2022-08-14T11:13:39.983Z,48.99
2022-08-14T11:14:39.969Z,48.90
2022-08-14T11:15:39.923Z,48.99
2022-08-14T11:16:40.581Z,48.99
2022-08-14T11:17:39.832Z,48.70
2022-08-14T11:18:40.448Z,48.60
2022-08-14T11:19:39.772Z,48.99
2022-08-14T11:20:39.715Z,47.81
2022-08-14T11:21:39.680Z,48.43
2022-08-14T11:22:55.690Z,48.33
2022-08-14T11:23:41.140Z,47.25
2022-08-14T11:24:50.872Z,48.33
2022-08-14T11:25:44.376Z,47.64
2022-08-14T11:26:39.494Z,47.35
2022-08-14T11:27:39.454Z,48.23
2022-08-14T11:28:47.781Z,47.45
2022-08-14T11:29:39.381Z,47.45
2022-08-14T11:30:50.375Z,47.37
2022-08-14T11:31:39.405Z,46.76
2022-08-14T11:32:39.284Z,47.16
2022-08-14T11:33:39.243Z,46.27
2022-08-14T11:34:39.205Z,46.95
2022-08-14T11:35:47.191Z,47.08
2022-08-14T11:37:09.574Z,46.86
2022-08-14T11:37:40.800Z,47.27
2022-08-14T11:38:39.042Z,46.88
2022-08-14T11:39:39.041Z,46.20
2022-08-14T11:40:38.963Z,46.78
2022-08-14T11:41:43.116Z,47.10
2022-08-14T11:42:57.878Z,46.39
2022-08-14T11:43:38.856Z,46.51
2022-08-14T11:44:45.288Z,46.41
2022-08-14T11:45:38.799Z,46.51
2022-08-14T11:46:38.760Z,46.51
2022-08-14T11:48:10.573Z,46.31
2022-08-14T11:49:01.961Z,46.02
2022-08-14T11:49:38.631Z,46.02
2022-08-14T11:50:38.614Z,45.63
2022-08-14T11:51:53.563Z,45.92
2022-08-14T11:52:40.168Z,45.92
2022-08-14T11:54:38.443Z,45.92
2022-08-14T11:55:39.032Z,45.26
2022-08-14T11:56:38.368Z,46.14
2022-08-14T11:57:38.349Z,45.97
2022-08-14T11:58:38.306Z,46.83
2022-08-14T11:59:43.967Z,46.26
2022-08-14T12:00:40.118Z,46.06
2022-08-14T12:01:38.241Z,46.06
2022-08-14T12:03:03.485Z,45.09
2022-08-14T12:03:46.063Z,45.28
2022-08-14T12:04:38.096Z,44.91
2022-08-14T12:05:38.034Z,44.81
2022-08-14T12:06:39.247Z,45.20
2022-08-14T12:07:42.934Z,45.10
2022-08-14T12:08:38.534Z,44.83
2022-08-14T12:09:37.905Z,45.23
2022-08-14T12:10:43.073Z,44.93
2022-08-14T12:11:37.813Z,44.44
2022-08-14T12:12:37.795Z,44.83
2022-08-14T12:13:37.740Z,45.45
2022-08-14T12:14:39.643Z,44.76
2022-08-14T12:15:37.676Z,44.26
2022-08-14T12:16:37.645Z,44.36
2022-08-14T12:17:47.272Z,43.97
2022-08-14T12:18:37.579Z,43.48
2022-08-14T12:19:37.543Z,43.50
2022-08-14T12:20:37.502Z,43.20
2022-08-14T12:21:37.470Z,43.32
2022-08-14T12:22:37.736Z,42.73
2022-08-14T12:23:37.396Z,42.76
2022-08-14T12:24:39.898Z,42.76
2022-08-14T12:25:37.319Z,42.87
2022-08-14T12:26:40.753Z,42.28
2022-08-14T12:27:37.844Z,42.60
2022-08-14T12:28:59.943Z,41.31
2022-08-14T12:29:37.191Z,40.94
2022-08-14T12:30:42.541Z,41.14
2022-08-14T12:31:44.579Z,40.96
2022-08-14T12:32:37.046Z,40.66
2022-08-14T12:33:37.014Z,40.09
2022-08-14T12:34:36.974Z,40.19
2022-08-14T12:35:36.957Z,39.99
2022-08-14T12:36:36.904Z,39.79
2022-08-14T12:37:36.890Z,39.03
2022-08-14T12:38:37.064Z,39.12
2022-08-14T12:39:39.769Z,39.04
2022-08-14T12:40:37.083Z,38.86
2022-08-14T12:41:37.238Z,38.09
2022-08-14T12:42:39.648Z,37.81
2022-08-14T12:43:36.981Z,37.43
2022-08-14T12:44:36.630Z,37.85
2022-08-14T12:45:36.604Z,36.28
2022-08-14T12:46:36.542Z,36.69
2022-08-14T12:47:36.569Z,35.71
2022-08-14T12:48:36.489Z,36.02
2022-08-14T12:49:36.435Z,35.64
2022-08-14T12:50:36.508Z,34.86
2022-08-14T12:51:36.367Z,34.40
2022-08-14T12:52:47.393Z,34.81
2022-08-14T12:53:38.476Z,33.95
2022-08-14T12:54:36.276Z,32.77
2022-08-14T12:56:22.060Z,32.78
2022-08-14T12:56:37.275Z,32.70
2022-08-14T12:57:36.150Z,32.12
2022-08-14T12:58:51.832Z,31.72
2022-08-14T12:59:37.196Z,31.73
2022-08-14T13:00:36.165Z,30.85
2022-08-14T13:02:00.086Z,30.96
2022-08-14T13:02:36.078Z,31.08
2022-08-14T13:03:35.939Z,30.87
2022-08-14T13:04:35.920Z,30.78
2022-08-14T13:05:35.891Z,30.48
2022-08-14T13:06:36.157Z,30.60
2022-08-14T13:07:35.817Z,30.41
2022-08-14T13:08:35.779Z,29.71
2022-08-14T13:09:37.815Z,29.62
2022-08-14T13:10:51.971Z,29.93
2022-08-14T13:11:35.676Z,29.14
2022-08-14T13:12:43.237Z,29.74
2022-08-14T13:13:35.606Z,28.95
2022-08-14T13:14:35.568Z,29.25
2022-08-14T13:15:35.841Z,28.45
2022-08-14T13:16:38.674Z,28.35
2022-08-14T13:17:38.284Z,28.55
2022-08-14T13:18:35.423Z,28.45
2022-08-14T13:19:35.392Z,28.95